sensor_id;sensor_type;location;lat;lon;timestamp;pressure;altitude;pressure_sealevel;temperature
13497;BMP180;6820;49.374;8.452;2023-03-03T00:03:48;100914.69;;;10.93
13497;BMP180;6820;49.374;8.452;2023-03-03T00:07:50;100926.56;;;10.81
13497;BMP180;6820;49.374;8.452;2023-03-03T00:11:56;100924.59;;;10.77
13497;BMP180;6820;49.374;8.452;2023-03-03T00:16:37;100921.84;;;10.74
13497;BMP180;6820;49.374;8.452;2023-03-03T00:20:39;100918.69;;;10.65
13497;BMP180;6820;49.374;8.452;2023-03-03T00:24:41;100922.34;;;10.57
13497;BMP180;6820;49.374;8.452;2023-03-03T00:28:45;100928.97;;;10.55
13497;BMP180;6820;49.374;8.452;2023-03-03T00:32:47;100932.47;;;10.57
13497;BMP180;6820;49.374;8.452;2023-03-03T00:36:55;100943.75;;;10.49
13497;BMP180;6820;49.374;8.452;2023-03-03T00:40:57;100939.56;;;10.50
13497;BMP180;6820;49.374;8.452;2023-03-03T00:44:59;100934.06;;;10.44
13497;BMP180;6820;49.374;8.452;2023-03-03T00:49:01;100938.81;;;10.39
13497;BMP180;6820;49.374;8.452;2023-03-03T00:53:12;100950.31;;;10.34
13497;BMP180;6820;49.374;8.452;2023-03-03T00:57:14;100942.38;;;10.30
13497;BMP180;6820;49.374;8.452;2023-03-03T01:01:17;100956.28;;;10.24
13497;BMP180;6820;49.374;8.452;2023-03-03T01:05:24;100947.91;;;10.13
13497;BMP180;6820;49.374;8.452;2023-03-03T01:09:25;100944.84;;;10.06
13497;BMP180;6820;49.374;8.452;2023-03-03T01:13:30;100939.66;;;10.04
13497;BMP180;6820;49.374;8.452;2023-03-03T01:17:32;100946.81;;;9.99
13497;BMP180;6820;49.374;8.452;2023-03-03T01:21:35;100937.56;;;9.99
13497;BMP180;6820;49.374;8.452;2023-03-03T01:25:37;100942.75;;;10.01
13497;BMP180;6820;49.374;8.452;2023-03-03T01:29:38;100944.41;;;10.00
13497;BMP180;6820;49.374;8.452;2023-03-03T01:33:40;100941.66;;;9.97
13497;BMP180;6820;49.374;8.452;2023-03-03T01:37:42;100946.91;;;9.89
13497;BMP180;6820;49.374;8.452;2023-03-03T01:41:43;100949.31;;;9.87
13497;BMP180;6820;49.374;8.452;2023-03-03T01:50:03;100945.16;;;9.65
13497;BMP180;6820;49.374;8.452;2023-03-03T01:54:13;100955.06;;;9.62
13497;BMP180;6820;49.374;8.452;2023-03-03T01:58:28;100947.34;;;9.61
13497;BMP180;6820;49.374;8.452;2023-03-03T02:02:30;100952.63;;;9.64
13497;BMP180;6820;49.374;8.452;2023-03-03T02:06:43;100937.56;;;9.65
13497;BMP180;6820;49.374;8.452;2023-03-03T02:10:47;100941.63;;;9.63
13497;BMP180;6820;49.374;8.452;2023-03-03T02:14:49;100948.66;;;9.56
13497;BMP180;6820;49.374;8.452;2023-03-03T02:18:51;100949.44;;;9.55
13497;BMP180;6820;49.374;8.452;2023-03-03T02:23:52;100944.47;;;9.56
13497;BMP180;6820;49.374;8.452;2023-03-03T02:27:44;100938.31;;;9.53
13497;BMP180;6820;49.374;8.452;2023-03-03T02:31:46;100951.38;;;9.47
13497;BMP180;6820;49.374;8.452;2023-03-03T02:35:48;100948.72;;;9.35
13497;BMP180;6820;49.374;8.452;2023-03-03T02:39:50;100942.00;;;9.35
13497;BMP180;6820;49.374;8.452;2023-03-03T02:43:59;100946.97;;;9.34
13497;BMP180;6820;49.374;8.452;2023-03-03T02:48:01;100946.63;;;9.29
13497;BMP180;6820;49.374;8.452;2023-03-03T02:52:05;100951.59;;;9.28
13497;BMP180;6820;49.374;8.452;2023-03-03T02:56:07;100952.31;;;9.27
13497;BMP180;6820;49.374;8.452;2023-03-03T03:00:10;100950.59;;;9.26
13497;BMP180;6820;49.374;8.452;2023-03-03T03:04:14;100944.31;;;9.21
13497;BMP180;6820;49.374;8.452;2023-03-03T03:08:19;100940.13;;;9.21
13497;BMP180;6820;49.374;8.452;2023-03-03T03:12:20;100939.81;;;9.17
13497;BMP180;6820;49.374;8.452;2023-03-03T03:16:26;100946.91;;;9.11
13497;BMP180;6820;49.374;8.452;2023-03-03T03:20:29;100938.88;;;9.05
13497;BMP180;6820;49.374;8.452;2023-03-03T03:24:31;100948.97;;;9.05
13497;BMP180;6820;49.374;8.452;2023-03-03T03:28:37;100950.41;;;9.02
13497;BMP180;6820;49.374;8.452;2023-03-03T03:32:39;100958.88;;;9.02
13497;BMP180;6820;49.374;8.452;2023-03-03T03:36:42;100955.22;;;8.99
13497;BMP180;6820;49.374;8.452;2023-03-03T03:40:46;100956.31;;;8.91
13497;BMP180;6820;49.374;8.452;2023-03-03T03:44:47;100957.59;;;8.86
13497;BMP180;6820;49.374;8.452;2023-03-03T03:48:52;100961.41;;;8.81
13497;BMP180;6820;49.374;8.452;2023-03-03T03:52:55;100974.06;;;8.81
13497;BMP180;6820;49.374;8.452;2023-03-03T03:56:57;100976.59;;;8.81
13497;BMP180;6820;49.374;8.452;2023-03-03T04:01:05;100972.81;;;8.76
13497;BMP180;6820;49.374;8.452;2023-03-03T04:05:10;100966.25;;;8.78
13497;BMP180;6820;49.374;8.452;2023-03-03T04:09:12;100974.88;;;8.70
13497;BMP180;6820;49.374;8.452;2023-03-03T04:13:13;100974.75;;;8.69
13497;BMP180;6820;49.374;8.452;2023-03-03T04:17:19;100978.50;;;8.74
13497;BMP180;6820;49.374;8.452;2023-03-03T04:21:22;100970.41;;;8.78
13497;BMP180;6820;49.374;8.452;2023-03-03T04:25:26;100958.53;;;8.77
13497;BMP180;6820;49.374;8.452;2023-03-03T04:29:28;100966.13;;;8.77
13497;BMP180;6820;49.374;8.452;2023-03-03T04:33:31;100966.00;;;8.75
13497;BMP180;6820;49.374;8.452;2023-03-03T04:37:35;100976.41;;;8.68
13497;BMP180;6820;49.374;8.452;2023-03-03T04:41:38;100974.88;;;8.70
13497;BMP180;6820;49.374;8.452;2023-03-03T04:45:39;100977.19;;;8.67
13497;BMP180;6820;49.374;8.452;2023-03-03T04:49:42;100985.53;;;8.66
13497;BMP180;6820;49.374;8.452;2023-03-03T04:53:44;100992.63;;;8.60
13497;BMP180;6820;49.374;8.452;2023-03-03T04:57:47;100989.53;;;8.53
13497;BMP180;6820;49.374;8.452;2023-03-03T05:01:48;100988.38;;;8.50
13497;BMP180;6820;49.374;8.452;2023-03-03T05:05:51;100992.69;;;8.51
13497;BMP180;6820;49.374;8.452;2023-03-03T05:09:53;100991.53;;;8.47
13497;BMP180;6820;49.374;8.452;2023-03-03T05:13:54;101007.47;;;8.46
13497;BMP180;6820;49.374;8.452;2023-03-03T05:17:56;101011.03;;;8.38
13497;BMP180;6820;49.374;8.452;2023-03-03T05:21:58;101013.72;;;8.30
13497;BMP180;6820;49.374;8.452;2023-03-03T05:26:00;101015.00;;;8.25
13497;BMP180;6820;49.374;8.452;2023-03-03T05:30:02;101008.56;;;8.28
13497;BMP180;6820;49.374;8.452;2023-03-03T05:34:04;101017.91;;;8.29
13497;BMP180;6820;49.374;8.452;2023-03-03T05:38:05;101021.53;;;8.33
13497;BMP180;6820;49.374;8.452;2023-03-03T05:42:07;101028.25;;;8.32
13497;BMP180;6820;49.374;8.452;2023-03-03T05:46:09;101040.50;;;8.28
13497;BMP180;6820;49.374;8.452;2023-03-03T05:50:11;101043.91;;;8.28
13497;BMP180;6820;49.374;8.452;2023-03-03T05:54:12;101042.53;;;8.22
13497;BMP180;6820;49.374;8.452;2023-03-03T05:58:14;101047.06;;;8.26
13497;BMP180;6820;49.374;8.452;2023-03-03T06:02:15;101045.94;;;8.22
13497;BMP180;6820;49.374;8.452;2023-03-03T06:06:17;101051.88;;;8.23
13497;BMP180;6820;49.374;8.452;2023-03-03T06:10:19;101054.63;;;8.26
13497;BMP180;6820;49.374;8.452;2023-03-03T06:14:25;101060.31;;;8.23
13497;BMP180;6820;49.374;8.452;2023-03-03T06:18:27;101058.84;;;8.16
13497;BMP180;6820;49.374;8.452;2023-03-03T06:22:29;101054.06;;;8.09
13497;BMP180;6820;49.374;8.452;2023-03-03T06:26:31;101063.28;;;8.08
13497;BMP180;6820;49.374;8.452;2023-03-03T06:30:33;101054.44;;;8.13
13497;BMP180;6820;49.374;8.452;2023-03-03T06:34:34;101060.31;;;8.23
13497;BMP180;6820;49.374;8.452;2023-03-03T06:38:36;101057.94;;;8.15
13497;BMP180;6820;49.374;8.452;2023-03-03T06:42:38;101060.22;;;8.22
13497;BMP180;6820;49.374;8.452;2023-03-03T06:46:39;101078.38;;;8.28
13497;BMP180;6820;49.374;8.452;2023-03-03T06:50:41;101075.09;;;8.29
13497;BMP180;6820;49.374;8.452;2023-03-03T06:54:42;101076.22;;;8.32
13497;BMP180;6820;49.374;8.452;2023-03-03T06:58:44;101083.91;;;8.34
13497;BMP180;6820;49.374;8.452;2023-03-03T07:02:47;101100.06;;;8.36
13497;BMP180;6820;49.374;8.452;2023-03-03T07:06:54;101099.69;;;8.31
13497;BMP180;6820;49.374;8.452;2023-03-03T07:11:00;101109.06;;;8.32
13497;BMP180;6820;49.374;8.452;2023-03-03T07:15:16;101113.72;;;8.28
13497;BMP180;6820;49.374;8.452;2023-03-03T07:19:21;101118.28;;;8.22
13497;BMP180;6820;49.374;8.452;2023-03-03T07:23:32;101123.59;;;8.15
13497;BMP180;6820;49.374;8.452;2023-03-03T07:27:42;101134.59;;;8.16
13497;BMP180;6820;49.374;8.452;2023-03-03T07:31:46;101128.75;;;8.26
13497;BMP180;6820;49.374;8.452;2023-03-03T07:35:48;101123.66;;;8.36
13497;BMP180;6820;49.374;8.452;2023-03-03T07:39:50;101125.31;;;8.46
13497;BMP180;6820;49.374;8.452;2023-03-03T07:43:53;101128.94;;;8.49
13497;BMP180;6820;49.374;8.452;2023-03-03T07:48:08;101123.63;;;8.56
13497;BMP180;6820;49.374;8.452;2023-03-03T07:52:38;101135.22;;;8.64
13497;BMP180;6820;49.374;8.452;2023-03-03T07:56:40;101140.34;;;8.75
13497;BMP180;6820;49.374;8.452;2023-03-03T08:01:20;101137.19;;;8.78
13497;BMP180;6820;49.374;8.452;2023-03-03T08:05:39;101144.84;;;8.89
13497;BMP180;6820;49.374;8.452;2023-03-03T08:13:45;101143.34;;;9.12
13497;BMP180;6820;49.374;8.452;2023-03-03T08:17:48;101147.63;;;9.13
13497;BMP180;6820;49.374;8.452;2023-03-03T08:21:51;101159.38;;;9.22
13497;BMP180;6820;49.374;8.452;2023-03-03T08:25:53;101153.72;;;9.36
13497;BMP180;6820;49.374;8.452;2023-03-03T08:29:55;101155.66;;;9.50
13497;BMP180;6820;49.374;8.452;2023-03-03T08:33:56;101164.47;;;9.55
13497;BMP180;6820;49.374;8.452;2023-03-03T08:37:59;101153.47;;;9.75
13497;BMP180;6820;49.374;8.452;2023-03-03T08:42:01;101155.50;;;9.91
13497;BMP180;6820;49.374;8.452;2023-03-03T08:46:03;101156.94;;;9.99
13497;BMP180;6820;49.374;8.452;2023-03-03T08:50:06;101152.81;;;10.10
13497;BMP180;6820;49.374;8.452;2023-03-03T08:54:08;101155.59;;;10.25
13497;BMP180;6820;49.374;8.452;2023-03-03T08:58:09;101151.88;;;10.42
13497;BMP180;6820;49.374;8.452;2023-03-03T09:02:11;101149.44;;;10.55
13497;BMP180;6820;49.374;8.452;2023-03-03T09:06:13;101151.34;;;10.69
13497;BMP180;6820;49.374;8.452;2023-03-03T09:10:17;101146.47;;;10.83
13497;BMP180;6820;49.374;8.452;2023-03-03T09:14:19;101154.25;;;10.97
13497;BMP180;6820;49.374;8.452;2023-03-03T09:18:31;101160.00;;;11.06
13497;BMP180;6820;49.374;8.452;2023-03-03T09:22:36;101170.44;;;11.11
13497;BMP180;6820;49.374;8.452;2023-03-03T09:26:42;101163.94;;;11.25
13497;BMP180;6820;49.374;8.452;2023-03-03T09:30:48;101162.47;;;11.29
13497;BMP180;6820;49.374;8.452;2023-03-03T09:34:50;101163.47;;;11.31
13497;BMP180;6820;49.374;8.452;2023-03-03T09:38:53;101170.19;;;11.42
13497;BMP180;6820;49.374;8.452;2023-03-03T09:43:04;101169.75;;;11.47
13497;BMP180;6820;49.374;8.452;2023-03-03T09:51:39;101162.59;;;11.90
13497;BMP180;6820;49.374;8.452;2023-03-03T10:08:52;101165.75;;;12.36
13497;BMP180;6820;49.374;8.452;2023-03-03T10:13:19;101176.31;;;12.29
13497;BMP180;6820;49.374;8.452;2023-03-03T10:18:01;101171.03;;;12.39
13497;BMP180;6820;49.374;8.452;2023-03-03T10:22:13;101167.63;;;12.51
13497;BMP180;6820;49.374;8.452;2023-03-03T10:35:55;101186.25;;;12.76
13497;BMP180;6820;49.374;8.452;2023-03-03T10:40:33;101185.16;;;12.98
13497;BMP180;6820;49.374;8.452;2023-03-03T10:53:31;101168.81;;;13.20
13497;BMP180;6820;49.374;8.452;2023-03-03T11:01:50;101164.94;;;13.52
13497;BMP180;6820;49.374;8.452;2023-03-03T11:05:59;101169.25;;;13.67
13497;BMP180;6820;49.374;8.452;2023-03-03T11:18:57;101148.88;;;13.94
13497;BMP180;6820;49.374;8.452;2023-03-03T11:23:31;101161.31;;;14.02
13497;BMP180;6820;49.374;8.452;2023-03-03T11:28:10;101157.63;;;14.12
13497;BMP180;6820;49.374;8.452;2023-03-03T11:36:48;101143.56;;;14.32
13497;BMP180;6820;49.374;8.452;2023-03-03T11:40:56;101134.69;;;14.40
13497;BMP180;6820;49.374;8.452;2023-03-03T11:45:02;101127.81;;;14.54
13497;BMP180;6820;49.374;8.452;2023-03-03T11:49:27;101130.72;;;14.60
13497;BMP180;6820;49.374;8.452;2023-03-03T11:54:00;101128.16;;;14.60
13497;BMP180;6820;49.374;8.452;2023-03-03T11:58:13;101127.47;;;14.62
13497;BMP180;6820;49.374;8.452;2023-03-03T12:07:06;101116.50;;;14.79
13497;BMP180;6820;49.374;8.452;2023-03-03T12:15:58;101131.50;;;14.73
13497;BMP180;6820;49.374;8.452;2023-03-03T12:28:40;101105.66;;;14.97
13497;BMP180;6820;49.374;8.452;2023-03-03T12:46:23;101089.72;;;15.47
13497;BMP180;6820;49.374;8.452;2023-03-03T12:50:38;101073.81;;;15.36
13497;BMP180;6820;49.374;8.452;2023-03-03T12:55:20;101075.25;;;15.47
13497;BMP180;6820;49.374;8.452;2023-03-03T12:59:26;101072.59;;;15.46
13497;BMP180;6820;49.374;8.452;2023-03-03T13:03:56;101066.31;;;15.55
13497;BMP180;6820;49.374;8.452;2023-03-03T13:12:30;101063.91;;;15.74
13497;BMP180;6820;49.374;8.452;2023-03-03T13:16:38;101064.28;;;15.81
13497;BMP180;6820;49.374;8.452;2023-03-03T13:20:48;101067.16;;;15.87
13497;BMP180;6820;49.374;8.452;2023-03-03T13:37:26;101042.09;;;16.30
13497;BMP180;6820;49.374;8.452;2023-03-03T13:41:55;101032.97;;;16.52
13497;BMP180;6820;49.374;8.452;2023-03-03T13:46:37;101043.00;;;16.48
13497;BMP180;6820;49.374;8.452;2023-03-03T13:50:47;101034.09;;;16.40
13497;BMP180;6820;49.374;8.452;2023-03-03T13:55:16;101022.94;;;16.57
13497;BMP180;6820;49.374;8.452;2023-03-03T14:17:25;101000.69;;;17.09
13497;BMP180;6820;49.374;8.452;2023-03-03T14:26:04;101006.75;;;17.11
13497;BMP180;6820;49.374;8.452;2023-03-03T14:34:35;100997.75;;;17.19
13497;BMP180;6820;49.374;8.452;2023-03-03T14:38:40;100991.81;;;17.38
13497;BMP180;6820;49.374;8.452;2023-03-03T14:42:48;100978.38;;;17.44
13497;BMP180;6820;49.374;8.452;2023-03-03T14:51:26;100983.50;;;17.44
13497;BMP180;6820;49.374;8.452;2023-03-03T14:55:33;100986.41;;;17.51
13497;BMP180;6820;49.374;8.452;2023-03-03T14:59:36;100969.34;;;17.52
13497;BMP180;6820;49.374;8.452;2023-03-03T15:03:45;100974.34;;;17.49
13497;BMP180;6820;49.374;8.452;2023-03-03T15:07:55;100971.03;;;17.51
13497;BMP180;6820;49.374;8.452;2023-03-03T15:11:58;100969.91;;;17.65
13497;BMP180;6820;49.374;8.452;2023-03-03T15:16:10;100964.84;;;17.67
13497;BMP180;6820;49.374;8.452;2023-03-03T15:25:00;100971.69;;;17.47
13497;BMP180;6820;49.374;8.452;2023-03-03T15:29:35;100970.13;;;17.51
13497;BMP180;6820;49.374;8.452;2023-03-03T15:34:20;100964.78;;;17.65
13497;BMP180;6820;49.374;8.452;2023-03-03T15:38:33;100964.66;;;17.62
13497;BMP180;6820;49.374;8.452;2023-03-03T15:42:55;100972.06;;;17.56
13497;BMP180;6820;49.374;8.452;2023-03-03T15:51:59;100979.50;;;17.11
13497;BMP180;6820;49.374;8.452;2023-03-03T16:00:31;100986.22;;;16.92
13497;BMP180;6820;49.374;8.452;2023-03-03T16:04:38;100988.59;;;16.88
13497;BMP180;6820;49.374;8.452;2023-03-03T16:09:12;100992.28;;;16.76
13497;BMP180;6820;49.374;8.452;2023-03-03T16:26:28;100998.56;;;16.29
13497;BMP180;6820;49.374;8.452;2023-03-03T16:30:38;101003.81;;;16.15
13497;BMP180;6820;49.374;8.452;2023-03-03T16:34:59;101009.53;;;15.93
13497;BMP180;6820;49.374;8.452;2023-03-03T16:39:10;101030.72;;;15.75
13497;BMP180;6820;49.374;8.452;2023-03-03T16:43:55;101024.63;;;15.56
13497;BMP180;6820;49.374;8.452;2023-03-03T16:52:47;101038.47;;;15.28
13497;BMP180;6820;49.374;8.452;2023-03-03T16:57:04;101046.53;;;15.20
13497;BMP180;6820;49.374;8.452;2023-03-03T17:05:53;101050.13;;;14.93
13497;BMP180;6820;49.374;8.452;2023-03-03T17:14:11;101067.44;;;14.68
13497;BMP180;6820;49.374;8.452;2023-03-03T17:22:59;101076.38;;;14.46
13497;BMP180;6820;49.374;8.452;2023-03-03T17:27:17;101090.38;;;14.38
13497;BMP180;6820;49.374;8.452;2023-03-03T17:31:48;101096.00;;;14.33
13497;BMP180;6820;49.374;8.452;2023-03-03T17:44:12;101107.63;;;14.14
13497;BMP180;6820;49.374;8.452;2023-03-03T18:19:19;101144.09;;;13.86
13497;BMP180;6820;49.374;8.452;2023-03-03T18:27:33;101148.81;;;13.66
13497;BMP180;6820;49.374;8.452;2023-03-03T18:40:33;101157.69;;;13.45
13497;BMP180;6820;49.374;8.452;2023-03-03T18:44:35;101162.50;;;13.40
13497;BMP180;6820;49.374;8.452;2023-03-03T18:48:48;101162.41;;;13.39
13497;BMP180;6820;49.374;8.452;2023-03-03T18:53:29;101171.34;;;13.33
13497;BMP180;6820;49.374;8.452;2023-03-03T18:57:31;101175.97;;;13.25
13497;BMP180;6820;49.374;8.452;2023-03-03T19:01:43;101171.81;;;13.27
13497;BMP180;6820;49.374;8.452;2023-03-03T19:05:48;101177.63;;;13.25
13497;BMP180;6820;49.374;8.452;2023-03-03T19:09:58;101178.41;;;13.24
13497;BMP180;6820;49.374;8.452;2023-03-03T19:18:27;101189.38;;;13.10
13497;BMP180;6820;49.374;8.452;2023-03-03T19:22:29;101188.13;;;13.04
13497;BMP180;6820;49.374;8.452;2023-03-03T19:39:40;101213.63;;;12.67
13497;BMP180;6820;49.374;8.452;2023-03-03T19:47:59;101218.72;;;12.67
13497;BMP180;6820;49.374;8.452;2023-03-03T19:52:25;101224.34;;;12.63
13497;BMP180;6820;49.374;8.452;2023-03-03T19:56:36;101224.31;;;12.50
13497;BMP180;6820;49.374;8.452;2023-03-03T20:00:45;101228.72;;;12.40
13497;BMP180;6820;49.374;8.452;2023-03-03T20:05:15;101233.66;;;12.25
13497;BMP180;6820;49.374;8.452;2023-03-03T20:17:47;101250.81;;;11.68
13497;BMP180;6820;49.374;8.452;2023-03-03T20:26:07;101262.28;;;11.63
13497;BMP180;6820;49.374;8.452;2023-03-03T20:47:42;101272.03;;;11.12
13497;BMP180;6820;49.374;8.452;2023-03-03T20:56:04;101272.78;;;11.00
13497;BMP180;6820;49.374;8.452;2023-03-03T21:00:28;101273.00;;;10.92
13497;BMP180;6820;49.374;8.452;2023-03-03T21:04:32;101269.38;;;10.88
13497;BMP180;6820;49.374;8.452;2023-03-03T21:08:39;101274.53;;;10.90
13497;BMP180;6820;49.374;8.452;2023-03-03T21:12:41;101276.34;;;10.91
13497;BMP180;6820;49.374;8.452;2023-03-03T21:16:43;101281.63;;;10.94
13497;BMP180;6820;49.374;8.452;2023-03-03T21:20:45;101283.06;;;10.90
13497;BMP180;6820;49.374;8.452;2023-03-03T21:24:50;101278.53;;;10.86
13497;BMP180;6820;49.374;8.452;2023-03-03T21:28:59;101282.94;;;10.89
13497;BMP180;6820;49.374;8.452;2023-03-03T21:33:04;101281.38;;;10.79
13497;BMP180;6820;49.374;8.452;2023-03-03T21:37:40;101291.28;;;10.65
13497;BMP180;6820;49.374;8.452;2023-03-03T21:41:49;101303.91;;;10.42
13497;BMP180;6820;49.374;8.452;2023-03-03T21:45:51;101304.75;;;10.32
13497;BMP180;6820;49.374;8.452;2023-03-03T21:49:53;101308.22;;;10.22
13497;BMP180;6820;49.374;8.452;2023-03-03T21:53:54;101310.72;;;10.11
13497;BMP180;6820;49.374;8.452;2023-03-03T21:57:56;101301.91;;;9.96
13497;BMP180;6820;49.374;8.452;2023-03-03T22:01:57;101307.53;;;9.92
13497;BMP180;6820;49.374;8.452;2023-03-03T22:06:00;101309.56;;;9.86
13497;BMP180;6820;49.374;8.452;2023-03-03T22:10:03;101307.44;;;9.81
13497;BMP180;6820;49.374;8.452;2023-03-03T22:14:05;101308.72;;;9.76
13497;BMP180;6820;49.374;8.452;2023-03-03T22:18:07;101298.00;;;9.69
13497;BMP180;6820;49.374;8.452;2023-03-03T22:22:08;101305.78;;;9.60
13497;BMP180;6820;49.374;8.452;2023-03-03T22:26:10;101305.41;;;9.56
13497;BMP180;6820;49.374;8.452;2023-03-03T22:30:12;101308.72;;;9.45
13497;BMP180;6820;49.374;8.452;2023-03-03T22:34:14;101316.84;;;9.41
13497;BMP180;6820;49.374;8.452;2023-03-03T22:38:15;101314.19;;;9.40
13497;BMP180;6820;49.374;8.452;2023-03-03T22:42:17;101316.34;;;9.35
13497;BMP180;6820;49.374;8.452;2023-03-03T22:46:19;101315.59;;;9.36
13497;BMP180;6820;49.374;8.452;2023-03-03T22:50:20;101318.53;;;9.31
13497;BMP180;6820;49.374;8.452;2023-03-03T22:54:22;101323.75;;;9.22
13497;BMP180;6820;49.374;8.452;2023-03-03T22:58:24;101321.22;;;9.12
13497;BMP180;6820;49.374;8.452;2023-03-03T23:02:27;101331.75;;;9.07
13497;BMP180;6820;49.374;8.452;2023-03-03T23:06:28;101330.72;;;9.05
13497;BMP180;6820;49.374;8.452;2023-03-03T23:10:30;101328.72;;;9.01
13497;BMP180;6820;49.374;8.452;2023-03-03T23:14:31;101323.53;;;9.00
13497;BMP180;6820;49.374;8.452;2023-03-03T23:18:33;101330.88;;;8.97
13497;BMP180;6820;49.374;8.452;2023-03-03T23:22:35;101339.72;;;8.92
13497;BMP180;6820;49.374;8.452;2023-03-03T23:26:37;101340.72;;;8.84
13497;BMP180;6820;49.374;8.452;2023-03-03T23:30:38;101343.50;;;8.87
13497;BMP180;6820;49.374;8.452;2023-03-03T23:34:40;101350.59;;;8.81
13497;BMP180;6820;49.374;8.452;2023-03-03T23:38:42;101347.56;;;8.75
13497;BMP180;6820;49.374;8.452;2023-03-03T23:42:43;101349.22;;;8.75
13497;BMP180;6820;49.374;8.452;2023-03-03T23:46:45;101354.91;;;8.72
13497;BMP180;6820;49.374;8.452;2023-03-03T23:50:46;101350.47;;;8.70
13497;BMP180;6820;49.374;8.452;2023-03-03T23:54:49;101347.06;;;8.69
13497;BMP180;6820;49.374;8.452;2023-03-03T23:58:50;101358.44;;;8.64
